Unbenanntes Dokument
Flugplatz Bielefeld Platzwetter

 

Aktuelles Platzwetter am Flugplatz Bielefeld EDLI

17.06.18 ,22:10 Uhr

METAR EDLI 172210Z 27005KT 9999 ///041 15/12 Q1020

 

Windwerte

 

Wolkenuntergrenzen

Wind aktuell:290 ° mit 6 kt
Wind 10 min Extrem:
250 ° bis 300 ° mit 3 kt bis 7 kt
Seitenwindkomponente: 1.7 kt
Wolkengrenze 1: 3100 ft
Wolkengrenze 2:
Wolkengrenze 3:

Webcam

Temperatur

       

Sichtweite:

20.000 Meter

15.1 °C
Taupunkt: 12.1 °C
Luftfeuchtigkeit: 82 %

Luftdruck:

QNH: 1020 hPa (30.12 in Hg)
QFE: 1004 hPa (29.65 in Hg)

Diese Daten werden automatisch ermittelt bzw. übertragen und sind nicht geprüft. Für die Richtigkeit wird daher keine Gewähr übernommen. Sie ersetzen im übrigen nicht die Flugwetterberatung. Alle Zeitangaben beziehen sich auf UTC. Die Seite wird einmal die Minute aktualisiert! Sollten Sie ein ältere Seite haben, so drücken Sie bitte auf den Reload Button Ihres Browsers!